createdAt,value
2018-06-13T00:01:11.040Z,6.10
2018-06-13T00:03:42.001Z,5.00
2018-06-13T00:06:16.352Z,5.00
2018-06-13T00:08:47.432Z,4.77
2018-06-13T00:11:18.611Z,5.27
2018-06-13T00:13:49.682Z,5.10
2018-06-13T00:16:20.939Z,5.80
2018-06-13T00:18:52.686Z,5.60
2018-06-13T00:21:24.034Z,5.87
2018-06-13T00:23:55.174Z,5.27
2018-06-13T00:26:29.824Z,5.33
2018-06-13T00:29:00.660Z,5.03
2018-06-13T00:31:31.707Z,4.50
2018-06-13T00:34:02.834Z,4.70
2018-06-13T00:36:34.178Z,5.30
2018-06-13T00:39:07.431Z,5.17
2018-06-13T00:41:39.172Z,5.00
2018-06-13T00:44:10.155Z,5.50
2018-06-13T00:46:41.348Z,4.50
2018-06-13T00:49:12.257Z,5.10
2018-06-13T00:51:43.235Z,5.17
2018-06-13T00:54:14.704Z,4.70
2018-06-13T00:56:45.691Z,4.90
2018-06-13T00:59:16.816Z,5.00
2018-06-13T01:01:47.947Z,4.80
2018-06-13T01:04:19.049Z,5.90
2018-06-13T01:06:50.426Z,5.83
2018-06-13T01:09:21.361Z,5.67
2018-06-13T01:11:52.271Z,5.00
2018-06-13T01:14:24.996Z,5.40
2018-06-13T01:16:55.716Z,5.23
2018-06-13T01:19:27.762Z,5.50
2018-06-13T01:21:59.028Z,5.27
2018-06-13T01:24:30.070Z,5.33
2018-06-13T01:27:00.733Z,6.10
2018-06-13T01:29:32.461Z,5.30
2018-06-13T01:32:04.591Z,5.87
2018-06-13T01:34:35.580Z,6.33
2018-06-13T01:37:06.545Z,5.50
2018-06-13T01:39:38.455Z,5.73
2018-06-13T01:42:09.332Z,5.67
2018-06-13T01:44:40.271Z,5.33
2018-06-13T01:47:11.047Z,5.00
2018-06-13T01:49:41.702Z,5.50
2018-06-13T01:52:12.570Z,5.47
2018-06-13T01:54:43.415Z,5.20
2018-06-13T01:57:14.677Z,5.53
2018-06-13T01:59:46.430Z,6.00
2018-06-13T02:02:17.199Z,5.37
2018-06-13T02:04:48.160Z,5.77
2018-06-13T02:07:19.210Z,5.60
2018-06-13T02:09:50.943Z,5.50
2018-06-13T02:12:21.994Z,5.13
2018-06-13T02:14:53.775Z,5.40
2018-06-13T02:17:24.813Z,5.40
2018-06-13T02:19:55.857Z,6.17
2018-06-13T02:22:26.949Z,5.17
2018-06-13T02:24:58.350Z,5.77
2018-06-13T02:27:29.363Z,5.53
2018-06-13T02:30:00.400Z,5.37
2018-06-13T02:32:31.259Z,5.77
2018-06-13T02:35:02.354Z,5.33
2018-06-13T02:37:35.318Z,6.23
2018-06-13T02:40:07.973Z,5.47
2018-06-13T02:42:38.883Z,5.80
2018-06-13T02:45:10.029Z,5.90
2018-06-13T02:47:40.947Z,5.77
2018-06-13T02:50:12.099Z,6.30
2018-06-13T02:52:43.122Z,6.60
2018-06-13T02:55:14.143Z,6.07
2018-06-13T02:57:45.157Z,6.73
2018-06-13T03:00:17.264Z,5.70
2018-06-13T03:02:48.170Z,5.00
2018-06-13T03:05:19.001Z,5.83
2018-06-13T03:07:50.018Z,5.73
2018-06-13T03:10:22.374Z,5.43
2018-06-13T03:12:53.268Z,5.47
2018-06-13T03:15:25.415Z,5.10
2018-06-13T03:17:56.327Z,5.30
2018-06-13T03:20:27.581Z,5.03
2018-06-13T03:22:58.586Z,6.20
2018-06-13T03:25:29.441Z,6.07
2018-06-13T03:28:00.471Z,5.57
2018-06-13T03:30:32.992Z,6.63
2018-06-13T03:33:07.724Z,5.67
2018-06-13T03:35:38.941Z,6.60
2018-06-13T03:38:10.017Z,6.87
2018-06-13T03:40:41.092Z,6.43
2018-06-13T03:43:11.990Z,6.43
2018-06-13T03:45:43.551Z,5.37
2018-06-13T03:48:14.379Z,5.50
2018-06-13T03:50:45.304Z,5.93
2018-06-13T03:53:16.404Z,6.07
2018-06-13T03:55:47.076Z,5.93
2018-06-13T03:58:17.871Z,6.50
2018-06-13T04:00:48.672Z,6.00
2018-06-13T04:03:19.650Z,6.30
2018-06-13T04:05:50.660Z,5.87
2018-06-13T04:08:21.706Z,5.43
2018-06-13T04:10:53.497Z,5.87
2018-06-13T04:13:24.528Z,5.53
2018-06-13T04:15:55.501Z,5.63
2018-06-13T04:18:26.578Z,5.50
2018-06-13T04:20:57.811Z,5.80
2018-06-13T04:23:28.883Z,5.53
2018-06-13T04:25:59.978Z,5.13
2018-06-13T04:28:30.760Z,4.93
2018-06-13T04:31:01.641Z,5.50
2018-06-13T04:33:32.444Z,5.20
2018-06-13T04:36:03.191Z,5.20
2018-06-13T04:38:34.230Z,5.87
2018-06-13T04:41:05.913Z,5.50
2018-06-13T04:43:36.991Z,5.43
2018-06-13T04:46:07.992Z,6.00
2018-06-13T04:48:39.962Z,5.03
2018-06-13T04:51:10.998Z,5.50
2018-06-13T04:53:41.968Z,5.33
2018-06-13T04:56:13.103Z,5.43
2018-06-13T04:58:43.986Z,5.20
2018-06-13T05:01:14.892Z,6.47
2018-06-13T05:03:45.973Z,5.00
2018-06-13T05:06:16.689Z,5.70
2018-06-13T05:08:47.821Z,5.80
2018-06-13T05:11:18.927Z,5.50
2018-06-13T05:13:53.717Z,5.17
2018-06-13T05:16:25.861Z,5.80
2018-06-13T05:18:56.885Z,5.13
2018-06-13T05:21:27.834Z,5.50
2018-06-13T05:23:58.725Z,4.90
2018-06-13T05:26:29.706Z,4.95
2018-06-13T05:29:00.550Z,5.47
2018-06-13T05:31:31.489Z,5.40
2018-06-13T05:34:02.371Z,5.67
2018-06-13T05:36:33.452Z,5.20
2018-06-13T05:39:05.132Z,5.00
2018-06-13T05:41:36.234Z,4.90
2018-06-13T05:44:07.045Z,5.15
2018-06-13T05:46:39.140Z,5.15
2018-06-13T05:49:10.220Z,4.87
2018-06-13T05:51:41.369Z,5.28
2018-06-13T05:54:12.474Z,5.25
2018-06-13T05:56:43.611Z,5.22
2018-06-13T05:59:14.583Z,4.62
2018-06-13T06:01:46.417Z,5.03
2018-06-13T06:04:17.281Z,5.37
2018-06-13T06:06:48.469Z,5.00
2018-06-13T06:09:19.941Z,5.12
2018-06-13T06:11:52.010Z,5.45
2018-06-13T06:14:23.197Z,4.60
2018-06-13T06:16:54.474Z,4.53
2018-06-13T06:19:25.396Z,4.60
2018-06-13T06:21:56.304Z,4.78
2018-06-13T06:24:27.193Z,4.95
2018-06-13T06:26:59.115Z,4.95
2018-06-13T06:29:30.097Z,4.50
2018-06-13T06:32:01.773Z,4.85
2018-06-13T06:34:33.110Z,5.10
2018-06-13T06:37:04.583Z,5.50
2018-06-13T06:39:35.609Z,5.80
2018-06-13T06:42:06.856Z,5.50
2018-06-13T06:44:38.109Z,6.67
2018-06-13T06:47:09.019Z,4.97
2018-06-13T06:49:40.144Z,5.40
2018-06-13T06:52:11.078Z,5.40
2018-06-13T06:54:41.826Z,5.60
2018-06-13T06:57:12.661Z,5.40
2018-06-13T06:59:43.624Z,5.40
2018-06-13T07:02:16.411Z,4.87
2018-06-13T07:04:47.456Z,5.20
2018-06-13T07:07:21.852Z,4.78
2018-06-13T07:09:52.779Z,5.25
2018-06-13T07:12:25.356Z,5.10
2018-06-13T07:14:56.417Z,5.03
2018-06-13T07:17:27.472Z,5.15
2018-06-13T07:19:58.587Z,5.58
2018-06-13T07:22:29.468Z,6.22
2018-06-13T07:24:59.984Z,6.08
2018-06-13T07:27:30.637Z,5.40
2018-06-13T07:30:01.149Z,5.78
2018-06-13T07:32:31.718Z,5.55
2018-06-13T07:35:02.247Z,6.47
2018-06-13T07:37:32.846Z,5.50
2018-06-13T07:40:03.560Z,6.08
2018-06-13T07:42:34.113Z,6.33
2018-06-13T07:45:05.233Z,5.97
2018-06-13T07:47:36.467Z,6.85
2018-06-13T07:50:08.308Z,7.20
2018-06-13T07:52:39.182Z,6.43
2018-06-13T07:55:10.151Z,6.40
2018-06-13T07:57:41.038Z,7.03
2018-06-13T08:00:15.093Z,6.60
2018-06-13T08:02:46.348Z,7.20
2018-06-13T08:05:18.118Z,6.50
2018-06-13T08:07:49.129Z,7.50
2018-06-13T08:10:20.164Z,6.40
2018-06-13T08:12:52.251Z,7.60
2018-06-13T08:15:23.129Z,8.07
2018-06-13T08:17:54.275Z,7.30
2018-06-13T08:20:25.425Z,8.43
2018-06-13T08:22:56.408Z,8.30
2018-06-13T08:25:27.062Z,8.60
2018-06-13T08:27:57.648Z,8.77
2018-06-13T08:30:28.569Z,9.27
2018-06-13T08:32:59.553Z,9.27
2018-06-13T08:35:30.356Z,9.17
2018-06-13T08:38:01.149Z,8.50
2018-06-13T08:40:32.233Z,9.60
2018-06-13T08:43:03.334Z,8.50
2018-06-13T08:45:34.247Z,8.80
2018-06-13T08:48:05.156Z,8.83
2018-06-13T08:50:35.877Z,8.57
2018-06-13T08:53:07.514Z,8.60
2018-06-13T08:55:38.645Z,8.40
2018-06-13T08:58:09.657Z,8.70
2018-06-13T09:00:40.865Z,8.37
2018-06-13T09:03:11.812Z,8.47
2018-06-13T09:05:42.635Z,9.83
2018-06-13T09:08:13.627Z,9.40
2018-06-13T09:10:44.421Z,9.50
2018-06-13T09:13:16.756Z,10.50
2018-06-13T09:15:47.586Z,9.30
2018-06-13T09:18:18.487Z,8.50
2018-06-13T09:20:50.560Z,8.27
2018-06-13T09:23:21.545Z,8.13
2018-06-13T09:25:53.674Z,8.13
2018-06-13T09:28:24.661Z,8.20
2018-06-13T09:30:55.578Z,7.43
2018-06-13T09:33:26.570Z,7.17
2018-06-13T09:35:57.370Z,7.50
2018-06-13T09:38:28.299Z,7.33
2018-06-13T09:40:59.376Z,7.43
2018-06-13T09:43:31.273Z,7.33
2018-06-13T09:46:03.562Z,7.37
2018-06-13T09:48:32.835Z,7.60
2018-06-13T09:51:03.427Z,7.30
2018-06-13T09:53:34.345Z,6.50
2018-06-13T09:56:05.322Z,7.20
2018-06-13T09:58:41.031Z,7.60
2018-06-13T10:01:16.879Z,6.00
2018-06-13T10:03:47.719Z,6.67
2018-06-13T10:06:18.677Z,6.40
2018-06-13T10:08:49.391Z,6.23
2018-06-13T10:11:20.183Z,6.00
2018-06-13T10:13:53.492Z,6.97
2018-06-13T10:16:25.314Z,6.37
2018-06-13T10:18:56.139Z,6.37
2018-06-13T10:21:28.237Z,6.20
2018-06-13T10:23:59.303Z,7.20
2018-06-13T10:26:30.767Z,7.03
2018-06-13T10:29:01.781Z,5.70
2018-06-13T10:31:32.592Z,6.53
2018-06-13T10:34:03.674Z,5.70
2018-06-13T10:36:34.550Z,6.13
2018-06-13T10:39:07.153Z,6.30
2018-06-13T10:41:38.183Z,6.43
2018-06-13T10:44:10.638Z,5.97
2018-06-13T10:46:41.934Z,6.33
2018-06-13T10:49:14.283Z,5.90
2018-06-13T10:51:45.618Z,5.80
2018-06-13T10:54:16.404Z,6.20
2018-06-13T10:56:47.176Z,6.03
2018-06-13T10:59:17.941Z,5.47
2018-06-13T11:01:49.326Z,5.77
2018-06-13T11:04:20.345Z,6.10
2018-06-13T11:06:51.285Z,5.50
2018-06-13T11:09:22.158Z,5.73
2018-06-13T11:11:53.075Z,5.63
2018-06-13T11:14:24.451Z,5.60
2018-06-13T11:16:55.582Z,5.70
2018-06-13T11:19:26.389Z,6.17
2018-06-13T11:21:57.270Z,5.53
2018-06-13T11:24:28.074Z,6.20
2018-06-13T11:26:58.999Z,5.53
2018-06-13T11:29:29.938Z,6.20
2018-06-13T11:32:00.942Z,5.70
2018-06-13T11:34:31.719Z,6.20
2018-06-13T11:37:02.649Z,5.17
2018-06-13T11:39:33.959Z,5.57
2018-06-13T11:42:04.816Z,5.67
2018-06-13T11:44:36.664Z,6.23
2018-06-13T11:47:07.503Z,5.70
2018-06-13T11:49:38.294Z,5.63
2018-06-13T11:52:09.387Z,6.13
2018-06-13T11:54:41.324Z,5.80
2018-06-13T11:57:12.300Z,6.20
2018-06-13T11:59:43.228Z,5.30
2018-06-13T12:02:14.175Z,5.30
2018-06-13T12:04:44.968Z,5.20
2018-06-13T12:07:15.643Z,5.40
2018-06-13T12:09:46.700Z,5.33
2018-06-13T12:12:17.700Z,5.83
2018-06-13T12:14:49.343Z,5.70
2018-06-13T12:17:20.289Z,5.43
2018-06-13T12:19:51.372Z,5.47
2018-06-13T12:22:24.961Z,5.50
2018-06-13T12:24:55.878Z,5.50
2018-06-13T12:27:26.597Z,5.13
2018-06-13T12:29:57.449Z,5.00
2018-06-13T12:32:28.674Z,5.17
2018-06-13T12:34:59.674Z,5.40
2018-06-13T12:37:30.680Z,4.77
2018-06-13T12:40:01.692Z,4.90
2018-06-13T12:42:32.677Z,6.60
2018-06-13T12:45:04.537Z,5.40
2018-06-13T12:47:35.673Z,5.50
2018-06-13T12:50:06.683Z,4.77
2018-06-13T12:52:38.688Z,5.00
2018-06-13T12:55:09.742Z,5.10
2018-06-13T12:57:40.733Z,4.40
2018-06-13T13:00:11.691Z,4.80
2018-06-13T13:02:42.470Z,5.20
2018-06-13T13:05:13.478Z,4.80
2018-06-13T13:07:44.305Z,4.80
2018-06-13T13:10:15.206Z,4.70
2018-06-13T13:12:46.131Z,4.93
2018-06-13T13:15:16.953Z,5.60
2018-06-13T13:17:47.814Z,5.33
2018-06-13T13:20:18.780Z,4.23
2018-06-13T13:22:49.477Z,5.00
2018-06-13T13:25:20.354Z,5.00
2018-06-13T13:27:51.251Z,5.10
2018-06-13T13:30:22.272Z,4.70
2018-06-13T13:32:53.221Z,4.70
2018-06-13T13:35:26.558Z,5.07
2018-06-13T13:37:57.507Z,5.00
2018-06-13T13:40:28.366Z,4.73
2018-06-13T13:42:59.266Z,4.70
2018-06-13T13:45:30.178Z,5.73
2018-06-13T13:48:01.915Z,4.80
2018-06-13T13:50:32.897Z,5.10
2018-06-13T13:53:03.740Z,4.53
2018-06-13T13:55:34.890Z,4.60
2018-06-13T13:58:06.373Z,4.77
2018-06-13T14:00:37.414Z,4.70
2018-06-13T14:03:11.275Z,4.80
2018-06-13T14:05:42.377Z,4.70
2018-06-13T14:08:13.376Z,4.90
2018-06-13T14:10:44.255Z,4.60
2018-06-13T14:13:15.009Z,4.70
2018-06-13T14:15:46.887Z,4.43
2018-06-13T14:18:17.911Z,5.57
2018-06-13T14:20:48.645Z,5.40
2018-06-13T14:23:19.682Z,5.87
2018-06-13T14:25:50.482Z,4.63
2018-06-13T14:28:21.436Z,5.50
2018-06-13T14:30:52.283Z,5.00
2018-06-13T14:33:23.318Z,4.90
2018-06-13T14:35:54.452Z,4.77
2018-06-13T14:38:25.449Z,4.80
2018-06-13T14:40:56.522Z,4.70
2018-06-13T14:43:27.338Z,5.17
2018-06-13T14:45:58.863Z,4.70
2018-06-13T14:48:30.964Z,4.63
2018-06-13T14:51:02.176Z,4.70
2018-06-13T14:53:33.413Z,4.43
2018-06-13T14:56:09.274Z,4.40
2018-06-13T14:58:40.842Z,4.80
2018-06-13T15:01:11.902Z,4.40
2018-06-13T15:03:43.165Z,4.43
2018-06-13T15:06:14.257Z,4.83
2018-06-13T15:08:45.354Z,4.20
2018-06-13T15:11:16.535Z,4.50
2018-06-13T15:13:50.497Z,4.33
2018-06-13T15:16:22.879Z,4.23
2018-06-13T15:18:53.873Z,4.30
2018-06-13T15:21:25.761Z,4.00
2018-06-13T15:23:56.801Z,4.53
2018-06-13T15:26:27.822Z,5.07
2018-06-13T15:28:58.691Z,4.57
2018-06-13T15:31:30.083Z,4.17
2018-06-13T15:34:01.554Z,4.23
2018-06-13T15:36:32.544Z,4.60
2018-06-13T15:39:03.395Z,4.50
2018-06-13T15:41:34.196Z,4.37
2018-06-13T15:44:05.364Z,4.30
2018-06-13T15:46:36.328Z,4.90
2018-06-13T15:49:07.346Z,4.53
2018-06-13T15:51:38.301Z,4.40
2018-06-13T15:54:09.206Z,4.60
2018-06-13T15:56:40.375Z,4.73
2018-06-13T15:59:11.834Z,4.70
2018-06-13T16:01:42.845Z,5.10
2018-06-13T16:04:13.895Z,4.60
2018-06-13T16:06:44.900Z,4.40
2018-06-13T16:09:15.964Z,4.53
2018-06-13T16:11:47.030Z,4.67
2018-06-13T16:14:17.949Z,5.20
2018-06-13T16:16:49.760Z,4.63
2018-06-13T16:19:20.991Z,4.67
2018-06-13T16:21:52.125Z,4.97
2018-06-13T16:24:23.305Z,4.50
2018-06-13T16:26:54.582Z,4.23
2018-06-13T16:29:25.802Z,4.73
2018-06-13T16:31:57.925Z,5.00
2018-06-13T16:34:28.840Z,4.37
2018-06-13T16:37:02.105Z,4.80
2018-06-13T16:39:33.859Z,4.60
2018-06-13T16:42:04.920Z,4.27
2018-06-13T16:44:36.231Z,4.23
2018-06-13T16:47:10.488Z,4.60
2018-06-13T16:49:41.546Z,5.03
2018-06-13T16:52:25.557Z,5.30
2018-06-13T16:55:16.268Z,5.20
2018-06-13T16:57:47.424Z,4.67
2018-06-13T17:00:19.572Z,4.93
2018-06-13T17:02:51.471Z,6.63
2018-06-13T17:05:23.361Z,11.63
2018-06-13T17:07:54.317Z,7.33
2018-06-13T17:10:25.432Z,5.27
2018-06-13T17:12:56.442Z,4.90
2018-06-13T17:15:27.505Z,6.10
2018-06-13T17:17:58.903Z,7.60
2018-06-13T17:20:29.978Z,5.20
2018-06-13T17:23:01.186Z,5.07
2018-06-13T17:25:32.217Z,3.93
2018-06-13T17:28:03.193Z,4.57
2018-06-13T17:30:34.490Z,3.80
2018-06-13T17:33:05.723Z,4.27
2018-06-13T17:35:38.573Z,4.63
2018-06-13T17:38:09.559Z,4.37
2018-06-13T17:40:40.460Z,4.33
2018-06-13T17:43:11.652Z,4.07
2018-06-13T17:45:42.827Z,4.07
2018-06-13T17:48:13.966Z,4.17
2018-06-13T17:50:45.887Z,3.90
2018-06-13T17:53:17.232Z,3.67
2018-06-13T17:55:49.826Z,4.20
2018-06-13T17:58:20.911Z,3.93
2018-06-13T18:00:51.846Z,4.43
2018-06-13T18:03:23.127Z,4.80
2018-06-13T18:05:54.474Z,4.30
2018-06-13T18:08:25.797Z,4.30
2018-06-13T18:10:57.000Z,4.57
2018-06-13T18:13:28.243Z,3.87
2018-06-13T18:15:59.565Z,3.97
2018-06-13T18:18:31.250Z,4.00
2018-06-13T18:21:02.583Z,4.13
2018-06-13T18:23:34.161Z,6.27
2018-06-13T18:26:05.352Z,5.40
2018-06-13T18:28:37.060Z,6.60
2018-06-13T18:31:08.337Z,4.57
2018-06-13T18:33:39.711Z,4.63
2018-06-13T18:36:10.978Z,3.97
2018-06-13T18:38:51.055Z,4.97
2018-06-13T18:41:22.472Z,4.83
2018-06-13T18:43:53.592Z,4.87
2018-06-13T18:46:30.107Z,5.40
2018-06-13T18:49:02.161Z,5.67
2018-06-13T18:51:33.297Z,5.60
2018-06-13T18:54:05.646Z,5.90
2018-06-13T18:56:36.679Z,6.10
2018-06-13T18:59:09.043Z,5.60
2018-06-13T19:01:40.064Z,6.20
2018-06-13T19:04:11.011Z,7.10
2018-06-13T19:06:42.782Z,6.27
2018-06-13T19:09:14.767Z,8.03
2018-06-13T19:11:45.981Z,6.43
2018-06-13T19:14:17.070Z,6.70
2018-06-13T19:16:48.313Z,6.30
2018-06-13T19:19:19.396Z,5.40
2018-06-13T19:21:50.482Z,7.03
2018-06-13T19:24:21.592Z,5.90
2018-06-13T19:26:52.656Z,5.27
2018-06-13T19:29:23.892Z,5.33
2018-06-13T19:31:55.066Z,4.63
2018-06-13T19:34:26.309Z,4.63
2018-06-13T19:36:57.419Z,3.93
2018-06-13T19:39:30.038Z,4.40
2018-06-13T19:42:01.029Z,3.87
2018-06-13T19:44:32.069Z,3.30
2018-06-13T19:48:09.787Z,4.57
2018-06-13T19:50:40.993Z,3.43
2018-06-13T19:53:18.160Z,3.13
2018-06-13T19:55:54.511Z,2.90
2018-06-13T19:58:25.736Z,3.40
2018-06-13T20:00:56.882Z,3.37
2018-06-13T20:03:32.841Z,3.37
2018-06-13T20:06:04.028Z,3.40
2018-06-13T20:08:35.900Z,2.77
2018-06-13T20:11:06.903Z,3.00
2018-06-13T20:13:42.923Z,3.20
2018-06-13T20:16:19.321Z,3.00
2018-06-13T20:18:55.203Z,2.53
2018-06-13T20:21:26.288Z,2.60
2018-06-13T20:23:57.398Z,2.70
2018-06-13T20:26:33.250Z,2.63
2018-06-13T20:29:09.266Z,2.90
2018-06-13T20:31:42.140Z,2.70
2018-06-13T20:34:13.135Z,3.20
2018-06-13T20:36:44.095Z,2.90
2018-06-13T20:39:15.206Z,2.70
2018-06-13T20:41:46.183Z,2.80
2018-06-13T20:44:17.273Z,3.17
2018-06-13T20:46:49.535Z,3.00
2018-06-13T20:49:20.542Z,3.00
2018-06-13T20:51:51.787Z,2.60
2018-06-13T20:54:22.835Z,2.87
2018-06-13T20:56:53.830Z,2.70
2018-06-13T20:59:24.855Z,3.20
2018-06-13T21:01:55.707Z,2.70
2018-06-13T21:04:27.244Z,2.80
2018-06-13T21:06:58.288Z,3.30
2018-06-13T21:09:29.632Z,3.17
2018-06-13T21:12:00.719Z,2.60
2018-06-13T21:14:31.974Z,3.67
2018-06-13T21:17:02.749Z,4.10
2018-06-13T21:19:34.096Z,3.50
2018-06-13T21:22:05.076Z,3.97
2018-06-13T21:24:36.988Z,4.33
2018-06-13T21:27:08.057Z,4.17
2018-06-13T21:29:39.104Z,3.70
2018-06-13T21:32:10.201Z,3.57
2018-06-13T21:34:41.468Z,4.33
2018-06-13T21:37:12.494Z,3.63
2018-06-13T21:39:43.456Z,3.60
2018-06-13T21:42:14.579Z,3.47
2018-06-13T21:44:45.634Z,3.40
2018-06-13T21:47:16.529Z,3.87
2018-06-13T21:49:47.552Z,3.27
2018-06-13T21:52:18.602Z,4.47
2018-06-13T21:54:50.655Z,4.13
2018-06-13T21:57:21.653Z,3.80
2018-06-13T21:59:52.675Z,4.20
2018-06-13T22:02:23.555Z,3.57
2018-06-13T22:04:55.571Z,3.20
2018-06-13T22:07:26.400Z,3.33
2018-06-13T22:09:57.450Z,3.90
2018-06-13T22:12:28.438Z,3.40
2018-06-13T22:14:59.310Z,3.40
2018-06-13T22:17:31.555Z,3.97
2018-06-13T22:20:02.513Z,3.57
2018-06-13T22:22:33.825Z,3.60
2018-06-13T22:25:05.925Z,4.37
2018-06-13T22:27:36.934Z,3.70
2018-06-13T22:30:08.132Z,4.40
2018-06-13T22:32:39.317Z,3.20
2018-06-13T22:35:10.515Z,4.07
2018-06-13T22:37:41.463Z,3.97
2018-06-13T22:40:12.497Z,4.37
2018-06-13T22:42:43.309Z,4.13
2018-06-13T22:45:14.190Z,3.93
2018-06-13T22:47:45.346Z,4.10
2018-06-13T22:50:16.393Z,4.90
2018-06-13T22:52:47.321Z,4.10
2018-06-13T22:55:18.442Z,4.30
2018-06-13T22:57:49.526Z,4.40
2018-06-13T23:00:29.368Z,4.17
2018-06-13T23:02:59.961Z,4.70
2018-06-13T23:05:31.056Z,4.47
2018-06-13T23:08:02.516Z,4.20
2018-06-13T23:10:39.289Z,4.33
2018-06-13T23:13:15.533Z,4.40
2018-06-13T23:15:46.734Z,4.60
2018-06-13T23:18:17.952Z,4.50
2018-06-13T23:20:49.439Z,4.40
2018-06-13T23:23:21.119Z,4.20
2018-06-13T23:25:54.176Z,5.10
2018-06-13T23:28:25.430Z,4.33
2018-06-13T23:30:56.529Z,4.93
2018-06-13T23:33:28.298Z,4.23
2018-06-13T23:35:59.448Z,4.37
2018-06-13T23:38:30.408Z,4.37
2018-06-13T23:41:01.440Z,4.17
2018-06-13T23:43:32.334Z,4.33
2018-06-13T23:46:03.410Z,4.20
2018-06-13T23:48:34.384Z,4.10
2018-06-13T23:51:06.073Z,4.20
2018-06-13T23:53:36.956Z,4.53
2018-06-13T23:56:08.549Z,4.87
2018-06-13T23:58:39.616Z,4.10
